createdAt,value
2022-09-02T00:01:27.507Z,72.95
2022-09-02T00:03:58.627Z,73.00
2022-09-02T00:06:26.947Z,73.14
2022-09-02T00:08:54.798Z,73.27
2022-09-02T00:11:24.719Z,73.44
2022-09-02T00:13:52.581Z,73.73
2022-09-02T00:16:23.159Z,74.08
2022-09-02T00:18:53.749Z,74.28
2022-09-02T00:21:22.210Z,74.73
2022-09-02T00:23:50.832Z,74.88
2022-09-02T00:26:19.251Z,75.14
2022-09-02T00:28:51.207Z,75.32
2022-09-02T00:31:25.715Z,75.49
2022-09-02T00:33:54.833Z,75.59
2022-09-02T00:36:22.865Z,75.79
2022-09-02T00:38:51.132Z,75.92
2022-09-02T00:41:22.344Z,75.91
2022-09-02T00:43:53.191Z,76.00
2022-09-02T00:46:23.372Z,76.45
2022-09-02T00:48:58.760Z,76.48
2022-09-02T00:51:29.305Z,76.91
2022-09-02T00:53:57.052Z,77.00
2022-09-02T00:56:27.601Z,77.17
2022-09-02T00:58:57.427Z,77.34
2022-09-02T01:01:25.535Z,77.74
2022-09-02T01:03:53.520Z,77.29
2022-09-02T01:06:27.544Z,77.39
2022-09-02T01:09:01.164Z,77.72
2022-09-02T01:11:32.532Z,77.67
2022-09-02T01:14:01.913Z,77.53
2022-09-02T01:16:34.688Z,77.44
2022-09-02T01:19:07.841Z,77.34
2022-09-02T01:21:37.233Z,76.95
2022-09-02T01:24:07.544Z,77.11
2022-09-02T01:26:35.221Z,77.14
2022-09-02T01:29:02.910Z,76.65
2022-09-02T01:31:31.061Z,76.70
2022-09-02T01:33:59.571Z,76.59
2022-09-02T01:36:27.374Z,76.35
2022-09-02T01:38:55.225Z,76.16
2022-09-02T01:41:24.644Z,76.03
2022-09-02T01:43:52.929Z,75.68
2022-09-02T01:46:21.127Z,75.60
2022-09-02T01:48:48.935Z,75.67
2022-09-02T01:51:18.573Z,75.48
2022-09-02T01:53:48.715Z,75.38
2022-09-02T01:56:17.644Z,75.51
2022-09-02T01:58:46.662Z,75.41
2022-09-02T02:01:14.623Z,75.30
2022-09-02T02:03:43.142Z,75.07
2022-09-02T02:06:12.355Z,75.06
2022-09-02T02:08:42.080Z,75.11
2022-09-02T02:11:11.045Z,75.18
2022-09-02T02:13:39.273Z,75.18
2022-09-02T02:16:08.921Z,75.10
2022-09-02T02:18:37.641Z,75.07
2022-09-02T02:21:05.421Z,75.21
2022-09-02T02:23:33.183Z,75.61
2022-09-02T02:26:00.928Z,75.65
2022-09-02T02:28:28.711Z,75.66
2022-09-02T02:30:56.491Z,75.89
2022-09-02T02:33:26.177Z,76.19
2022-09-02T02:36:06.340Z,76.03
2022-09-02T02:38:34.816Z,76.32
2022-09-02T02:41:06.320Z,76.50
2022-09-02T02:43:34.704Z,76.57
2022-09-02T02:46:02.544Z,76.60
2022-09-02T02:48:32.140Z,76.76
2022-09-02T02:50:59.980Z,76.94
2022-09-02T02:53:29.738Z,77.26
2022-09-02T02:56:00.681Z,77.35
2022-09-02T02:58:28.314Z,77.66
2022-09-02T03:00:56.715Z,77.85
2022-09-02T03:03:25.755Z,77.98
2022-09-02T03:05:57.206Z,78.23
2022-09-02T03:08:27.722Z,78.46
2022-09-02T03:10:58.053Z,78.55
2022-09-02T03:13:29.622Z,78.81
2022-09-02T03:16:01.099Z,79.02
2022-09-02T03:18:28.959Z,79.23
2022-09-02T03:20:59.797Z,79.24
2022-09-02T03:23:28.160Z,79.50
2022-09-02T03:25:56.023Z,79.80
2022-09-02T03:28:36.803Z,79.99
2022-09-02T03:31:06.878Z,80.33
2022-09-02T03:33:34.916Z,80.48
2022-09-02T03:36:06.262Z,80.67
2022-09-02T03:38:36.030Z,80.76
2022-09-02T03:41:04.483Z,80.75
2022-09-02T03:43:32.286Z,80.79
2022-09-02T03:46:00.495Z,81.19
2022-09-02T03:48:29.449Z,81.41
2022-09-02T03:50:57.814Z,81.37
2022-09-02T03:53:27.037Z,81.55
2022-09-02T03:55:59.897Z,81.57
2022-09-02T03:58:28.985Z,81.76
2022-09-02T04:00:59.073Z,82.15
2022-09-02T04:03:27.466Z,82.42
2022-09-02T04:05:59.705Z,82.44
2022-09-02T04:08:30.796Z,82.87
2022-09-02T04:11:06.650Z,82.93
2022-09-02T04:13:34.712Z,83.30
2022-09-02T04:16:07.792Z,83.62
2022-09-02T04:18:38.529Z,83.73
2022-09-02T04:21:07.075Z,84.14
2022-09-02T04:23:38.609Z,84.22
2022-09-02T04:26:07.317Z,84.36
2022-09-02T04:28:35.623Z,84.45
2022-09-02T04:31:06.534Z,84.92
2022-09-02T04:33:35.079Z,84.96
2022-09-02T04:36:05.855Z,85.23
2022-09-02T04:38:34.555Z,85.55
2022-09-02T04:41:08.582Z,85.35
2022-09-02T04:43:37.469Z,85.75
2022-09-02T04:46:07.140Z,85.86
2022-09-02T04:48:37.221Z,86.01
2022-09-02T04:51:06.894Z,86.20
2022-09-02T04:53:35.828Z,86.50
2022-09-02T04:56:07.264Z,86.66
2022-09-02T04:58:37.562Z,86.91
2022-09-02T05:01:07.569Z,87.21
2022-09-02T05:03:35.968Z,87.28
2022-09-02T05:06:06.275Z,87.50
2022-09-02T05:08:36.935Z,87.90
2022-09-02T05:11:08.071Z,88.40
2022-09-02T05:13:36.036Z,88.50
2022-09-02T05:16:04.813Z,88.68
2022-09-02T05:18:33.033Z,89.44
2022-09-02T05:21:06.480Z,90.00
2022-09-02T05:23:35.700Z,90.06
2022-09-02T05:26:04.831Z,90.50
2022-09-02T05:28:35.583Z,90.12
2022-09-02T05:31:06.085Z,90.61
2022-09-02T05:33:37.270Z,90.60
2022-09-02T05:36:06.675Z,90.71
2022-09-02T05:38:35.175Z,90.70
2022-09-02T05:41:08.148Z,90.84
2022-09-02T05:43:38.647Z,90.78
2022-09-02T05:46:08.206Z,91.29
2022-09-02T05:48:56.034Z,91.01
2022-09-02T05:51:25.634Z,90.59
2022-09-02T05:53:55.254Z,90.23
2022-09-02T05:56:23.711Z,90.00
2022-09-02T05:58:53.517Z,89.92
2022-09-02T06:01:21.444Z,89.78
2022-09-02T06:03:50.461Z,89.92
2022-09-02T06:06:18.630Z,89.44
2022-09-02T06:08:46.583Z,89.00
2022-09-02T06:11:14.491Z,88.71
2022-09-02T06:13:43.894Z,88.47
2022-09-02T06:16:17.102Z,88.35
2022-09-02T06:18:49.059Z,88.25
2022-09-02T06:21:17.724Z,87.80
2022-09-02T06:23:49.532Z,87.63
2022-09-02T06:26:19.090Z,87.54
2022-09-02T06:28:47.547Z,87.49
2022-09-02T06:31:21.200Z,87.31
2022-09-02T06:33:54.099Z,86.97
2022-09-02T06:36:28.149Z,86.64
2022-09-02T06:38:59.617Z,86.39
2022-09-02T06:41:30.878Z,86.14
2022-09-02T06:44:03.937Z,85.99
2022-09-02T06:46:40.914Z,86.02
2022-09-02T06:49:10.263Z,85.72
2022-09-02T06:51:41.078Z,85.57
2022-09-02T06:54:14.023Z,84.94
2022-09-02T06:56:48.593Z,84.31
2022-09-02T06:59:19.860Z,83.46
2022-09-02T07:01:52.803Z,83.32
2022-09-02T07:04:40.706Z,83.08
2022-09-02T07:07:12.080Z,82.78
2022-09-02T07:10:00.162Z,82.56
2022-09-02T07:12:28.543Z,82.24
2022-09-02T07:15:03.966Z,81.72
2022-09-02T07:17:40.279Z,81.38
2022-09-02T07:20:20.264Z,80.81
2022-09-02T07:22:53.029Z,80.49
2022-09-02T07:25:22.202Z,79.68
2022-09-02T07:27:52.238Z,79.23
2022-09-02T07:30:20.702Z,78.93
2022-09-02T07:32:53.706Z,78.45
2022-09-02T07:35:24.070Z,77.48
2022-09-02T07:37:52.915Z,77.34
2022-09-02T07:40:23.319Z,77.39
2022-09-02T07:42:52.328Z,77.03
2022-09-02T07:45:21.870Z,76.24
2022-09-02T07:47:50.555Z,75.79
2022-09-02T07:50:22.659Z,75.51
2022-09-02T07:52:54.646Z,75.33
2022-09-02T07:55:23.721Z,75.05
2022-09-02T07:57:53.996Z,74.40
2022-09-02T08:00:27.433Z,74.17
2022-09-02T08:02:57.094Z,73.64
2022-09-02T08:05:35.391Z,73.47
2022-09-02T08:08:04.289Z,73.15
2022-09-02T08:10:36.469Z,72.65
2022-09-02T08:13:06.447Z,72.22
2022-09-02T08:15:36.168Z,71.70
2022-09-02T08:18:05.570Z,70.99
2022-09-02T08:20:35.028Z,70.36
2022-09-02T08:23:11.553Z,68.93
2022-09-02T08:25:41.201Z,68.24
2022-09-02T08:28:09.054Z,68.04
2022-09-02T08:30:36.929Z,67.46
2022-09-02T08:33:04.791Z,67.01
2022-09-02T08:35:33.970Z,65.95
2022-09-02T08:38:02.352Z,64.72
2022-09-02T08:40:40.206Z,64.01
2022-09-02T08:43:24.814Z,62.45
2022-09-02T08:45:54.446Z,60.62
2022-09-02T08:48:33.362Z,59.68
2022-09-02T08:51:08.454Z,59.06
2022-09-02T08:53:46.569Z,58.71
2022-09-02T08:56:18.110Z,57.52
2022-09-02T08:58:50.129Z,55.56
2022-09-02T09:01:26.367Z,54.03
2022-09-02T09:04:10.447Z,52.45
2022-09-02T09:06:52.472Z,51.89
2022-09-02T09:09:29.850Z,52.08
2022-09-02T09:12:04.782Z,51.08
2022-09-02T09:14:38.208Z,49.93
2022-09-02T09:17:12.694Z,49.04
2022-09-02T09:19:48.861Z,47.29
2022-09-02T09:22:20.819Z,47.17
2022-09-02T09:24:50.744Z,47.36
2022-09-02T09:27:20.839Z,47.64
2022-09-02T09:29:49.595Z,46.62
2022-09-02T09:32:26.015Z,45.62
2022-09-02T09:35:01.784Z,44.71
2022-09-02T09:37:36.086Z,43.86
2022-09-02T09:40:24.652Z,43.62
2022-09-02T09:42:57.171Z,43.34
2022-09-02T09:45:31.240Z,42.09
2022-09-02T09:48:16.421Z,41.65
2022-09-02T09:50:44.524Z,41.65
2022-09-02T09:53:20.143Z,41.61
2022-09-02T09:55:54.099Z,41.53
2022-09-02T09:58:23.854Z,40.81
2022-09-02T10:00:56.398Z,40.94
2022-09-02T10:03:32.851Z,40.76
2022-09-02T10:06:19.354Z,40.13
2022-09-02T10:08:54.873Z,40.18
2022-09-02T10:11:25.708Z,40.29
2022-09-02T10:13:59.964Z,39.91
2022-09-02T10:16:45.247Z,38.44
2022-09-02T10:19:25.456Z,38.80
2022-09-02T10:22:13.434Z,37.89
2022-09-02T10:24:57.293Z,37.50
2022-09-02T10:27:32.764Z,36.32
2022-09-02T10:30:07.122Z,37.04
2022-09-02T10:32:59.702Z,37.23
2022-09-02T10:35:40.370Z,37.15
2022-09-02T10:38:17.864Z,36.69
2022-09-02T10:40:50.798Z,35.95
2022-09-02T10:43:29.145Z,36.68
2022-09-02T10:46:00.624Z,36.16
2022-09-02T10:48:39.164Z,36.28
2022-09-02T10:51:16.591Z,35.57
2022-09-02T10:53:55.965Z,35.44
2022-09-02T10:56:28.133Z,35.36
2022-09-02T10:59:01.123Z,35.68
2022-09-02T11:01:33.593Z,35.16
2022-09-02T11:04:09.996Z,34.95
2022-09-02T11:07:01.414Z,34.78
2022-09-02T11:09:34.937Z,34.81
2022-09-02T11:12:11.088Z,35.01
2022-09-02T11:15:03.786Z,34.75
2022-09-02T11:17:37.748Z,34.58
2022-09-02T11:20:14.905Z,34.12
2022-09-02T11:22:50.951Z,34.28
2022-09-02T11:25:26.441Z,33.73
2022-09-02T11:28:04.933Z,33.87
2022-09-02T11:30:41.142Z,33.20
2022-09-02T11:33:17.320Z,32.43
2022-09-02T11:35:45.694Z,31.60
2022-09-02T11:38:30.947Z,31.49
2022-09-02T11:41:36.666Z,30.93
2022-09-02T11:44:27.036Z,30.54
2022-09-02T11:47:10.301Z,30.93
2022-09-02T11:49:58.094Z,31.58
2022-09-02T11:52:34.797Z,31.61
2022-09-02T11:55:11.248Z,30.28
2022-09-02T11:57:41.310Z,29.80
2022-09-02T12:00:14.946Z,29.57
2022-09-02T12:02:45.862Z,29.73
2022-09-02T12:06:06.299Z,30.80
2022-09-02T12:09:10.578Z,31.25
2022-09-02T12:11:55.171Z,30.84
2022-09-02T12:15:03.680Z,31.15
2022-09-02T12:17:42.149Z,31.60
2022-09-02T12:20:12.615Z,31.67
2022-09-02T12:22:42.574Z,31.62
2022-09-02T12:25:38.391Z,31.42
2022-09-02T12:28:24.209Z,30.20
2022-09-02T12:31:17.756Z,30.77
2022-09-02T12:33:52.562Z,30.52
2022-09-02T12:36:47.956Z,29.91
2022-09-02T12:39:52.511Z,30.15
2022-09-02T12:42:27.312Z,29.13
2022-09-02T12:45:06.043Z,28.96
2022-09-02T12:47:44.999Z,28.87
2022-09-02T12:50:26.559Z,28.18
2022-09-02T12:53:11.857Z,28.45
2022-09-02T12:55:41.669Z,28.12
2022-09-02T12:58:11.345Z,28.81
2022-09-02T13:00:58.769Z,29.00
2022-09-02T13:03:40.305Z,28.40
2022-09-02T13:06:16.014Z,28.14
2022-09-02T13:09:24.119Z,27.24
2022-09-02T13:12:19.941Z,27.09
2022-09-02T13:14:59.627Z,26.88
2022-09-02T13:17:42.641Z,27.18
2022-09-02T13:20:46.558Z,27.35
2022-09-02T13:23:54.321Z,27.02
2022-09-02T13:26:53.757Z,26.25
2022-09-02T13:29:53.696Z,26.22
2022-09-02T13:32:24.784Z,26.75
2022-09-02T13:34:56.088Z,27.14
2022-09-02T13:37:36.600Z,27.45
2022-09-02T13:40:18.370Z,27.58
2022-09-02T13:42:50.054Z,26.82
2022-09-02T13:45:19.715Z,26.69
2022-09-02T13:47:49.498Z,26.14
2022-09-02T13:50:20.380Z,26.40
2022-09-02T13:55:47.936Z,26.41
2022-09-02T13:58:35.365Z,26.42
2022-09-02T14:01:26.115Z,26.66
2022-09-02T14:03:56.981Z,27.25
2022-09-02T14:06:28.047Z,27.78
2022-09-02T14:08:59.846Z,28.22
2022-09-02T14:11:31.637Z,28.61
2022-09-02T14:13:59.553Z,28.56
2022-09-02T14:16:33.983Z,28.61
2022-09-02T14:19:10.465Z,28.88
2022-09-02T14:21:45.057Z,28.87
2022-09-02T14:24:13.973Z,28.91
2022-09-02T14:26:46.976Z,29.40
2022-09-02T14:29:17.013Z,29.44
2022-09-02T14:31:45.522Z,29.67
2022-09-02T14:34:32.960Z,29.43
2022-09-02T14:37:00.811Z,29.25
2022-09-02T14:39:28.639Z,28.59
2022-09-02T14:41:57.897Z,29.24
2022-09-02T14:44:32.713Z,29.39
2022-09-02T14:47:02.682Z,29.31
2022-09-02T14:49:34.149Z,29.65
2022-09-02T14:52:04.356Z,28.83
2022-09-02T14:54:38.412Z,28.08
2022-09-02T14:57:28.378Z,28.90
2022-09-02T14:59:57.949Z,29.22
2022-09-02T15:02:33.111Z,29.11
2022-09-02T15:05:07.769Z,29.43
2022-09-02T15:07:35.435Z,29.41
2022-09-02T15:10:04.239Z,28.97
2022-09-02T15:12:35.093Z,29.15
2022-09-02T15:15:02.712Z,29.15
2022-09-02T15:17:31.051Z,29.63
2022-09-02T15:19:58.693Z,29.13
2022-09-02T15:22:27.251Z,29.85
2022-09-02T15:24:55.093Z,30.46
2022-09-02T15:27:22.748Z,31.52
2022-09-02T15:29:51.721Z,32.05
2022-09-02T15:32:19.765Z,32.67
2022-09-02T15:34:47.416Z,32.70
2022-09-02T15:37:15.276Z,33.29
2022-09-02T15:39:43.083Z,33.22
2022-09-02T15:42:10.905Z,33.62
2022-09-02T15:44:38.606Z,34.08
2022-09-02T15:47:07.783Z,33.99
2022-09-02T15:49:35.538Z,34.36
2022-09-02T15:52:03.748Z,34.56
2022-09-02T15:54:31.987Z,34.60
2022-09-02T15:57:00.288Z,34.36
2022-09-02T15:59:28.175Z,34.50
2022-09-02T16:01:58.766Z,34.47
2022-09-02T16:04:29.303Z,34.32
2022-09-02T16:06:57.480Z,34.08
2022-09-02T16:09:25.176Z,34.28
2022-09-02T16:11:56.136Z,34.21
2022-09-02T16:14:25.529Z,34.26
2022-09-02T16:16:57.113Z,34.74
2022-09-02T16:19:30.028Z,34.80
2022-09-02T16:22:00.167Z,35.10
2022-09-02T16:24:28.223Z,35.03
2022-09-02T16:26:55.972Z,35.30
2022-09-02T16:29:24.117Z,35.50
2022-09-02T16:32:07.829Z,35.50
2022-09-02T16:34:40.862Z,35.63
2022-09-02T16:37:09.869Z,35.88
2022-09-02T16:39:37.610Z,36.02
2022-09-02T16:42:05.967Z,36.16
2022-09-02T16:44:35.798Z,36.02
2022-09-02T16:47:03.531Z,36.24
2022-09-02T16:49:32.096Z,36.26
2022-09-02T16:51:59.805Z,36.45
2022-09-02T16:54:31.123Z,36.52
2022-09-02T16:57:01.432Z,36.59
2022-09-02T16:59:31.404Z,36.63
2022-09-02T17:01:59.300Z,36.23
2022-09-02T17:04:27.032Z,36.53
2022-09-02T17:06:54.622Z,36.57
2022-09-02T17:09:22.217Z,36.75
2022-09-02T17:11:54.210Z,36.64
2022-09-02T17:14:22.242Z,36.67
2022-09-02T17:16:52.202Z,36.60
2022-09-02T17:19:22.531Z,36.76
2022-09-02T17:21:51.882Z,36.62
2022-09-02T17:24:21.868Z,36.60
2022-09-02T17:26:55.774Z,36.84
2022-09-02T17:29:48.017Z,37.10
2022-09-02T17:32:13.621Z,36.96
2022-09-02T17:34:41.307Z,37.31
2022-09-02T17:37:09.043Z,37.67
2022-09-02T17:39:36.800Z,37.58
2022-09-02T17:42:06.920Z,38.10
2022-09-02T17:44:38.310Z,38.39
2022-09-02T17:47:07.951Z,38.36
2022-09-02T17:49:37.256Z,39.14
2022-09-02T17:52:05.491Z,39.27
2022-09-02T17:54:33.378Z,39.41
2022-09-02T17:57:21.025Z,39.67
2022-09-02T18:00:02.369Z,39.81
2022-09-02T18:03:02.023Z,40.38
2022-09-02T18:05:39.314Z,40.57
2022-09-02T18:08:12.798Z,40.74
2022-09-02T18:10:47.504Z,40.80
2022-09-02T18:13:25.969Z,40.96
2022-09-02T18:15:59.821Z,41.24
2022-09-02T18:18:28.263Z,41.09
2022-09-02T18:21:03.617Z,41.43
2022-09-02T18:23:51.638Z,41.49
2022-09-02T18:26:30.232Z,41.81
2022-09-02T18:29:14.638Z,41.96
2022-09-02T18:31:50.506Z,42.39
2022-09-02T18:34:35.831Z,42.24
2022-09-02T18:37:13.477Z,42.66
2022-09-02T18:39:55.672Z,42.53
2022-09-02T18:42:34.268Z,42.59
2022-09-02T18:45:10.734Z,42.93
2022-09-02T18:47:47.155Z,43.20
2022-09-02T18:50:44.909Z,43.28
2022-09-02T18:53:14.771Z,43.52
2022-09-02T18:55:45.381Z,43.41
2022-09-02T18:58:20.425Z,43.49
2022-09-02T19:00:54.978Z,43.63
2022-09-02T19:03:23.313Z,43.95
2022-09-02T19:05:50.997Z,43.79
2022-09-02T19:08:33.177Z,44.25
2022-09-02T19:11:03.771Z,44.20
2022-09-02T19:13:40.870Z,44.28
2022-09-02T19:16:10.004Z,44.48
2022-09-02T19:18:37.685Z,44.53
2022-09-02T19:21:05.894Z,44.71
2022-09-02T19:23:33.903Z,45.08
2022-09-02T19:26:01.657Z,45.25
2022-09-02T19:28:30.159Z,45.10
2022-09-02T19:31:01.340Z,45.38
2022-09-02T19:33:32.403Z,45.71
2022-09-02T19:36:00.197Z,45.68
2022-09-02T19:38:29.059Z,45.46
2022-09-02T19:40:56.924Z,45.63
2022-09-02T19:43:24.665Z,45.76
2022-09-02T19:45:52.405Z,45.71
2022-09-02T19:48:20.684Z,45.92
2022-09-02T19:50:49.851Z,46.03
2022-09-02T19:53:20.716Z,46.25
2022-09-02T19:55:48.693Z,46.32
2022-09-02T19:58:16.311Z,46.55
2022-09-02T20:00:44.377Z,46.75
2022-09-02T20:03:13.097Z,46.75
2022-09-02T20:05:41.790Z,46.88
2022-09-02T20:08:10.752Z,46.95
2022-09-02T20:10:39.404Z,47.05
2022-09-02T20:13:09.312Z,47.10
2022-09-02T20:15:38.399Z,47.13
2022-09-02T20:18:11.335Z,47.29
2022-09-02T20:20:42.240Z,47.33
2022-09-02T20:23:16.984Z,47.53
2022-09-02T20:25:57.436Z,47.63
2022-09-02T20:28:31.355Z,47.78
2022-09-02T20:31:10.914Z,47.96
2022-09-02T20:33:48.052Z,48.10
2022-09-02T20:36:26.637Z,48.18
2022-09-02T20:39:18.156Z,48.00
2022-09-02T20:41:55.182Z,48.30
2022-09-02T20:44:50.095Z,48.28
2022-09-02T20:47:32.588Z,48.48
2022-09-02T20:50:22.533Z,48.47
2022-09-02T20:53:02.347Z,48.80
2022-09-02T20:55:38.251Z,48.77
2022-09-02T20:58:18.720Z,48.77
2022-09-02T21:01:02.934Z,48.75
2022-09-02T21:03:41.011Z,48.90
2022-09-02T21:06:11.874Z,49.13
2022-09-02T21:08:47.632Z,49.15
2022-09-02T21:11:18.420Z,49.22
2022-09-02T21:13:52.403Z,49.48
2022-09-02T21:16:26.163Z,49.52
2022-09-02T21:19:04.360Z,49.30
2022-09-02T21:21:41.449Z,49.56
2022-09-02T21:24:14.756Z,49.48
2022-09-02T21:26:49.167Z,49.62
2022-09-02T21:29:22.779Z,49.58
2022-09-02T21:31:57.944Z,49.65
2022-09-02T21:34:29.414Z,49.75
2022-09-02T21:36:59.929Z,49.85
2022-09-02T21:39:32.161Z,49.74
2022-09-02T21:42:15.451Z,49.74
2022-09-02T21:45:01.492Z,49.99
2022-09-02T21:47:35.298Z,49.79
2022-09-02T21:50:09.574Z,49.92
2022-09-02T21:52:51.109Z,50.15
2022-09-02T21:55:35.257Z,50.19
2022-09-02T21:58:22.105Z,50.43
2022-09-02T22:00:57.071Z,50.46
2022-09-02T22:03:37.074Z,50.54
2022-09-02T22:06:13.080Z,50.81
2022-09-02T22:08:50.416Z,50.59
2022-09-02T22:11:23.810Z,50.76
2022-09-02T22:13:52.861Z,50.88
2022-09-02T22:16:32.549Z,50.96
2022-09-02T22:19:02.573Z,50.98
2022-09-02T22:21:38.064Z,51.26
2022-09-02T22:24:06.791Z,51.42
2022-09-02T22:26:43.524Z,51.43
2022-09-02T22:29:29.015Z,51.30
2022-09-02T22:32:00.501Z,51.55
2022-09-02T22:34:31.135Z,51.65
2022-09-02T22:37:03.783Z,51.70
2022-09-02T22:39:38.466Z,51.73
2022-09-02T22:42:12.883Z,51.88
2022-09-02T22:45:06.084Z,52.00
2022-09-02T22:47:54.916Z,52.16
2022-09-02T22:50:50.116Z,52.11
2022-09-02T22:53:18.052Z,52.19
2022-09-02T22:55:58.807Z,52.35
2022-09-02T22:58:38.762Z,52.55
2022-09-02T23:01:16.349Z,52.36
2022-09-02T23:03:56.747Z,52.63
2022-09-02T23:06:27.886Z,52.42
2022-09-02T23:08:56.496Z,52.68
2022-09-02T23:11:31.846Z,52.66
2022-09-02T23:14:10.076Z,52.90
2022-09-02T23:16:55.101Z,52.87
2022-09-02T23:19:34.888Z,53.08
2022-09-02T23:22:12.149Z,53.29
2022-09-02T23:24:47.572Z,53.27
2022-09-02T23:27:27.026Z,53.42
2022-09-02T23:29:55.726Z,53.37
2022-09-02T23:32:46.369Z,53.54
2022-09-02T23:35:27.096Z,53.85
2022-09-02T23:38:09.465Z,53.63
2022-09-02T23:40:40.747Z,53.99
2022-09-02T23:43:09.976Z,54.10
2022-09-02T23:45:37.899Z,54.24
2022-09-02T23:48:24.642Z,54.20
2022-09-02T23:51:06.355Z,54.36
2022-09-02T23:53:39.328Z,54.35
2022-09-02T23:56:22.277Z,54.73
2022-09-02T23:59:09.274Z,54.81
